sensor_id;sensor_type;location;lat;lon;timestamp;pressure;altitude;pressure_sealevel;temperature;humidity
32452;BME280;45528;52.102;5.242;2023-04-28T00:03:09;101042.0;;;15.46;40.03
32452;BME280;45528;52.102;5.242;2023-04-28T00:04:45;101040.0;;;15.47;39.99
32452;BME280;45528;52.102;5.242;2023-04-28T00:06:21;101028.0;;;15.49;39.79
32452;BME280;45528;52.102;5.242;2023-04-28T00:09:33;101015.0;;;15.38;39.42
32452;BME280;45528;52.102;5.242;2023-04-28T00:11:10;101012.0;;;15.25;40.43
32452;BME280;45528;52.102;5.242;2023-04-28T00:12:46;101005.0;;;15.29;39.72
32452;BME280;45528;52.102;5.242;2023-04-28T00:16:00;101001.0;;;15.06;39.82
32452;BME280;45528;52.102;5.242;2023-04-28T00:17:36;100990.0;;;15.21;40.21
32452;BME280;45528;52.102;5.242;2023-04-28T00:19:12;100988.0;;;15.19;39.82
32452;BME280;45528;52.102;5.242;2023-04-28T00:20:48;100988.0;;;15.09;40.6
32452;BME280;45528;52.102;5.242;2023-04-28T00:24:00;100984.0;;;15.22;40.28
32452;BME280;45528;52.102;5.242;2023-04-28T00:25:36;100981.0;;;15.41;40.03
32452;BME280;45528;52.102;5.242;2023-04-28T00:27:13;100973.0;;;15.26;40.31
32452;BME280;45528;52.102;5.242;2023-04-28T00:30:25;100971.0;;;15.47;39.86
32452;BME280;45528;52.102;5.242;2023-04-28T00:32:02;100971.0;;;15.22;40.5
32452;BME280;45528;52.102;5.242;2023-04-28T00:33:38;100971.0;;;15.2;40.1
32452;BME280;45528;52.102;5.242;2023-04-28T00:36:51;100962.0;;;15.34;40.81
32452;BME280;45528;52.102;5.242;2023-04-28T00:38:27;100959.0;;;15.37;39.67
32452;BME280;45528;52.102;5.242;2023-04-28T00:40:04;100966.0;;;15.5;39.79
32452;BME280;45528;52.102;5.242;2023-04-28T00:41:40;100966.0;;;15.2;40.92
32452;BME280;45528;52.102;5.242;2023-04-28T00:44:52;100963.0;;;15.12;40.58
32452;BME280;45528;52.102;5.242;2023-04-28T00:46:29;100960.0;;;14.99;40.46
32452;BME280;45528;52.102;5.242;2023-04-28T00:48:08;100957.0;;;15.22;40.69
32452;BME280;45528;52.102;5.242;2023-04-28T00:51:22;100955.0;;;15.23;40.11
32452;BME280;45528;52.102;5.242;2023-04-28T00:52:59;100951.0;;;15.07;40.67
32452;BME280;45528;52.102;5.242;2023-04-28T00:54:36;100953.0;;;15.31;40.67
32452;BME280;45528;52.102;5.242;2023-04-28T00:57:50;100947.0;;;15.35;41.14
32452;BME280;45528;52.102;5.242;2023-04-28T00:59:26;100937.0;;;15.28;40.42
32452;BME280;45528;52.102;5.242;2023-04-28T01:01:03;100933.0;;;15.26;40.46
32452;BME280;45528;52.102;5.242;2023-04-28T01:02:40;100928.0;;;15.16;40.15
32452;BME280;45528;52.102;5.242;2023-04-28T01:05:55;100924.0;;;15.11;40.81
32452;BME280;45528;52.102;5.242;2023-04-28T01:07:32;100928.0;;;15.35;41.09
32452;BME280;45528;52.102;5.242;2023-04-28T01:09:08;100925.0;;;15.29;40.85
32452;BME280;45528;52.102;5.242;2023-04-28T01:12:21;100923.0;;;15.29;41.15
32452;BME280;45528;52.102;5.242;2023-04-28T01:13:57;100922.0;;;15.17;41.13
32452;BME280;45528;52.102;5.242;2023-04-28T01:15:34;100927.0;;;15.22;40.92
32452;BME280;45528;52.102;5.242;2023-04-28T01:18:47;100933.0;;;15.28;41.4
32452;BME280;45528;52.102;5.242;2023-04-28T01:20:23;100931.0;;;15.19;40.61
32452;BME280;45528;52.102;5.242;2023-04-28T01:21:59;100930.0;;;15.33;40.94
32452;BME280;45528;52.102;5.242;2023-04-28T01:23:35;100928.0;;;15.35;41.58
32452;BME280;45528;52.102;5.242;2023-04-28T01:26:47;100926.0;;;15.27;40.29
32452;BME280;45528;52.102;5.242;2023-04-28T01:28:23;100922.0;;;15.21;40.78
32452;BME280;45528;52.102;5.242;2023-04-28T01:30:00;100917.0;;;15.01;40.1
32452;BME280;45528;52.102;5.242;2023-04-28T01:33:12;100914.0;;;15.3;40.15
32452;BME280;45528;52.102;5.242;2023-04-28T01:34:48;100911.0;;;15.17;40.54
32452;BME280;45528;52.102;5.242;2023-04-28T01:36:24;100905.0;;;15.26;41.46
32452;BME280;45528;52.102;5.242;2023-04-28T01:39:37;100900.0;;;15.2;40.94
32452;BME280;45528;52.102;5.242;2023-04-28T01:41:13;100891.0;;;15.1;40.17
32452;BME280;45528;52.102;5.242;2023-04-28T01:42:49;100892.0;;;15.05;40.31
32452;BME280;45528;52.102;5.242;2023-04-28T01:44:26;100884.0;;;15.22;40.65
32452;BME280;45528;52.102;5.242;2023-04-28T01:47:38;100881.0;;;15.16;40.39
32452;BME280;45528;52.102;5.242;2023-04-28T01:49:14;100880.0;;;14.86;40.6
32452;BME280;45528;52.102;5.242;2023-04-28T01:50:50;100883.0;;;15.0;40.53
32452;BME280;45528;52.102;5.242;2023-04-28T01:54:02;100881.0;;;15.13;40.43
32452;BME280;45528;52.102;5.242;2023-04-28T01:55:38;100880.0;;;15.16;40.53
32452;BME280;45528;52.102;5.242;2023-04-28T01:57:15;100877.0;;;15.19;40.92
32452;BME280;45528;52.102;5.242;2023-04-28T02:00:27;100883.0;;;15.1;40.44
32452;BME280;45528;52.102;5.242;2023-04-28T02:02:03;100880.0;;;15.32;40.4
32452;BME280;45528;52.102;5.242;2023-04-28T02:03:39;100877.0;;;15.29;41.8
32452;BME280;45528;52.102;5.242;2023-04-28T02:06:51;100871.0;;;15.31;40.67
32452;BME280;45528;52.102;5.242;2023-04-28T02:08:27;100869.0;;;15.32;41.2
32452;BME280;45528;52.102;5.242;2023-04-28T02:10:04;100870.0;;;15.31;40.87
32452;BME280;45528;52.102;5.242;2023-04-28T02:11:40;100867.0;;;15.17;41.05
32452;BME280;45528;52.102;5.242;2023-04-28T02:14:53;100864.0;;;15.28;40.61
32452;BME280;45528;52.102;5.242;2023-04-28T02:16:29;100863.0;;;15.08;40.12
32452;BME280;45528;52.102;5.242;2023-04-28T02:18:05;100863.0;;;15.14;40.18
32452;BME280;45528;52.102;5.242;2023-04-28T02:21:17;100859.0;;;15.05;40.37
32452;BME280;45528;52.102;5.242;2023-04-28T02:22:53;100853.0;;;14.96;40.71
32452;BME280;45528;52.102;5.242;2023-04-28T02:24:30;100848.0;;;15.14;40.75
32452;BME280;45528;52.102;5.242;2023-04-28T02:27:45;100848.0;;;15.27;41.2
32452;BME280;45528;52.102;5.242;2023-04-28T02:29:21;100847.0;;;15.28;41.3
32452;BME280;45528;52.102;5.242;2023-04-28T02:31:06;100846.0;;;15.3;40.5
32452;BME280;45528;52.102;5.242;2023-04-28T02:32:49;100843.0;;;15.15;40.56
32452;BME280;45528;52.102;5.242;2023-04-28T02:36:03;100844.0;;;15.29;40.89
32452;BME280;45528;52.102;5.242;2023-04-28T02:37:39;100836.0;;;15.11;40.75
32452;BME280;45528;52.102;5.242;2023-04-28T02:39:16;100831.0;;;15.03;41.11
32452;BME280;45528;52.102;5.242;2023-04-28T02:40:56;100831.0;;;14.97;40.94
32452;BME280;45528;52.102;5.242;2023-04-28T02:44:09;100828.0;;;15.03;40.9
32452;BME280;45528;52.102;5.242;2023-04-28T02:45:45;100827.0;;;15.0;40.75
32452;BME280;45528;52.102;5.242;2023-04-28T02:47:21;100822.0;;;15.08;42.19
32452;BME280;45528;52.102;5.242;2023-04-28T02:50:33;100814.0;;;15.04;40.72
32452;BME280;45528;52.102;5.242;2023-04-28T02:52:10;100807.0;;;14.86;41.56
32452;BME280;45528;52.102;5.242;2023-04-28T02:53:46;100803.0;;;14.83;41.23
32452;BME280;45528;52.102;5.242;2023-04-28T02:56:58;100806.0;;;15.0;40.56
32452;BME280;45528;52.102;5.242;2023-04-28T02:58:34;100796.0;;;14.68;41.31
32452;BME280;45528;52.102;5.242;2023-04-28T03:00:11;100796.0;;;14.76;41.66
32452;BME280;45528;52.102;5.242;2023-04-28T03:01:48;100791.0;;;14.89;41.73
32452;BME280;45528;52.102;5.242;2023-04-28T03:05:01;100791.0;;;14.76;42.43
32452;BME280;45528;52.102;5.242;2023-04-28T03:06:37;100788.0;;;14.73;41.31
32452;BME280;45528;52.102;5.242;2023-04-28T03:08:13;100790.0;;;14.98;41.4
32452;BME280;45528;52.102;5.242;2023-04-28T03:11:25;100784.0;;;15.0;41.07
32452;BME280;45528;52.102;5.242;2023-04-28T03:13:01;100780.0;;;14.88;41.52
32452;BME280;45528;52.102;5.242;2023-04-28T03:14:37;100782.0;;;14.68;41.87
32452;BME280;45528;52.102;5.242;2023-04-28T03:17:49;100777.0;;;14.84;42.79
32452;BME280;45528;52.102;5.242;2023-04-28T03:19:26;100767.0;;;14.89;41.7
32452;BME280;45528;52.102;5.242;2023-04-28T03:21:02;100767.0;;;14.65;41.87
32452;BME280;45528;52.102;5.242;2023-04-28T03:24:14;100772.0;;;14.78;42.17
32452;BME280;45528;52.102;5.242;2023-04-28T03:25:50;100773.0;;;14.92;41.94
32452;BME280;45528;52.102;5.242;2023-04-28T03:27:27;100777.0;;;14.5;41.94
32452;BME280;45528;52.102;5.242;2023-04-28T03:29:02;100777.0;;;14.82;41.79
32452;BME280;45528;52.102;5.242;2023-04-28T03:32:15;100774.0;;;14.92;41.04
32452;BME280;45528;52.102;5.242;2023-04-28T03:33:51;100769.0;;;15.0;40.97
32452;BME280;45528;52.102;5.242;2023-04-28T03:35:27;100763.0;;;14.76;41.96
32452;BME280;45528;52.102;5.242;2023-04-28T03:38:39;100762.0;;;14.91;41.5
32452;BME280;45528;52.102;5.242;2023-04-28T03:40:15;100761.0;;;14.97;42.27
32452;BME280;45528;52.102;5.242;2023-04-28T03:41:51;100759.0;;;14.77;41.99
32452;BME280;45528;52.102;5.242;2023-04-28T03:45:04;100757.0;;;14.98;42.12
32452;BME280;45528;52.102;5.242;2023-04-28T03:46:41;100757.0;;;14.98;42.49
32452;BME280;45528;52.102;5.242;2023-04-28T03:48:17;100756.0;;;15.04;42.53
32452;BME280;45528;52.102;5.242;2023-04-28T03:51:29;100757.0;;;14.97;42.31
32452;BME280;45528;52.102;5.242;2023-04-28T03:53:05;100756.0;;;14.93;42.04
32452;BME280;45528;52.102;5.242;2023-04-28T03:54:41;100749.0;;;14.97;42.45
32452;BME280;45528;52.102;5.242;2023-04-28T03:56:17;100748.0;;;14.97;42.12
32452;BME280;45528;52.102;5.242;2023-04-28T03:59:31;100745.0;;;15.07;42.2
32452;BME280;45528;52.102;5.242;2023-04-28T04:01:07;100739.0;;;15.0;41.95
32452;BME280;45528;52.102;5.242;2023-04-28T04:02:43;100730.0;;;15.0;42.28
32452;BME280;45528;52.102;5.242;2023-04-28T04:05:55;100726.0;;;14.97;42.29
32452;BME280;45528;52.102;5.242;2023-04-28T04:07:31;100723.0;;;14.87;42.28
32452;BME280;45528;52.102;5.242;2023-04-28T04:09:07;100722.0;;;14.81;42.4
32452;BME280;45528;52.102;5.242;2023-04-28T04:12:20;100717.0;;;14.92;42.91
32452;BME280;45528;52.102;5.242;2023-04-28T04:13:56;100718.0;;;14.98;42.9
32452;BME280;45528;52.102;5.242;2023-04-28T04:15:32;100719.0;;;14.97;43.48
32452;BME280;45528;52.102;5.242;2023-04-28T04:17:08;100721.0;;;14.99;42.56
32452;BME280;45528;52.102;5.242;2023-04-28T04:20:20;100720.0;;;14.98;41.99
32452;BME280;45528;52.102;5.242;2023-04-28T04:21:57;100721.0;;;14.89;42.56
32452;BME280;45528;52.102;5.242;2023-04-28T04:23:33;100720.0;;;14.98;42.8
32452;BME280;45528;52.102;5.242;2023-04-28T04:26:46;100719.0;;;14.84;42.88
32452;BME280;45528;52.102;5.242;2023-04-28T04:28:22;100712.0;;;14.84;43.31
32452;BME280;45528;52.102;5.242;2023-04-28T04:29:58;100710.0;;;14.93;42.69
32452;BME280;45528;52.102;5.242;2023-04-28T04:33:10;100706.0;;;14.94;42.79
32452;BME280;45528;52.102;5.242;2023-04-28T04:34:46;100702.0;;;14.95;43.06
32452;BME280;45528;52.102;5.242;2023-04-28T04:36:22;100690.0;;;14.87;42.97
32452;BME280;45528;52.102;5.242;2023-04-28T04:39:35;100690.0;;;14.76;43.48
32452;BME280;45528;52.102;5.242;2023-04-28T04:41:11;100690.0;;;14.89;43.35
32452;BME280;45528;52.102;5.242;2023-04-28T04:42:47;100694.0;;;14.83;43.5
32452;BME280;45528;52.102;5.242;2023-04-28T04:44:23;100694.0;;;14.89;43.49
32452;BME280;45528;52.102;5.242;2023-04-28T04:47:35;100694.0;;;15.0;43.57
32452;BME280;45528;52.102;5.242;2023-04-28T04:49:11;100683.0;;;15.12;43.59
32452;BME280;45528;52.102;5.242;2023-04-28T04:50:47;100678.0;;;14.98;43.7
32452;BME280;45528;52.102;5.242;2023-04-28T04:54:00;100674.0;;;14.88;44.34
32452;BME280;45528;52.102;5.242;2023-04-28T04:55:36;100673.0;;;15.0;43.99
32452;BME280;45528;52.102;5.242;2023-04-28T04:57:12;100668.0;;;15.08;43.76
32452;BME280;45528;52.102;5.242;2023-04-28T05:00:27;100672.0;;;14.98;44.03
32452;BME280;45528;52.102;5.242;2023-04-28T05:02:03;100669.0;;;14.79;44.65
32452;BME280;45528;52.102;5.242;2023-04-28T05:03:40;100667.0;;;14.95;44.34
32452;BME280;45528;52.102;5.242;2023-04-28T05:05:16;100668.0;;;15.02;44.02
32452;BME280;45528;52.102;5.242;2023-04-28T05:08:28;100671.0;;;15.01;44.36
32452;BME280;45528;52.102;5.242;2023-04-28T05:10:05;100667.0;;;14.97;44.51
32452;BME280;45528;52.102;5.242;2023-04-28T05:11:41;100658.0;;;15.09;45.23
32452;BME280;45528;52.102;5.242;2023-04-28T05:14:53;100657.0;;;14.88;44.62
32452;BME280;45528;52.102;5.242;2023-04-28T05:16:29;100656.0;;;14.88;44.75
32452;BME280;45528;52.102;5.242;2023-04-28T05:18:06;100670.0;;;15.07;45.62
32452;BME280;45528;52.102;5.242;2023-04-28T05:21:18;100678.0;;;15.13;46.3
32452;BME280;45528;52.102;5.242;2023-04-28T05:22:54;100684.0;;;15.01;46.22
32452;BME280;45528;52.102;5.242;2023-04-28T05:24:30;100689.0;;;15.23;45.89
32452;BME280;45528;52.102;5.242;2023-04-28T05:27:42;100697.0;;;15.31;46.67
32452;BME280;45528;52.102;5.242;2023-04-28T05:29:19;100692.0;;;15.33;46.5
32452;BME280;45528;52.102;5.242;2023-04-28T05:30:55;100691.0;;;15.15;46.29
32452;BME280;45528;52.102;5.242;2023-04-28T05:32:31;100684.0;;;15.36;47.13
32452;BME280;45528;52.102;5.242;2023-04-28T05:35:45;100681.0;;;15.3;47.21
32452;BME280;45528;52.102;5.242;2023-04-28T05:37:21;100680.0;;;15.3;47.8
32452;BME280;45528;52.102;5.242;2023-04-28T05:38:58;100675.0;;;15.26;47.69
32452;BME280;45528;52.102;5.242;2023-04-28T05:42:11;100671.0;;;15.27;47.74
32452;BME280;45528;52.102;5.242;2023-04-28T05:43:47;100680.0;;;15.3;48.84
32452;BME280;45528;52.102;5.242;2023-04-28T05:45:23;100681.0;;;15.31;48.5
32452;BME280;45528;52.102;5.242;2023-04-28T05:48:36;100680.0;;;15.35;48.91
32452;BME280;45528;52.102;5.242;2023-04-28T05:50:12;100682.0;;;15.38;49.02
32452;BME280;45528;52.102;5.242;2023-04-28T05:51:49;100680.0;;;15.28;49.3
32452;BME280;45528;52.102;5.242;2023-04-28T05:53:26;100685.0;;;15.32;50.28
32452;BME280;45528;52.102;5.242;2023-04-28T05:56:38;100688.0;;;15.31;51.48
32452;BME280;45528;52.102;5.242;2023-04-28T05:58:14;100685.0;;;15.22;51.04
32452;BME280;45528;52.102;5.242;2023-04-28T05:59:50;100686.0;;;15.18;51.8
32452;BME280;45528;52.102;5.242;2023-04-28T06:03:02;100684.0;;;14.98;51.38
32452;BME280;45528;52.102;5.242;2023-04-28T06:04:40;100677.0;;;15.08;51.59
32452;BME280;45528;52.102;5.242;2023-04-28T06:06:16;100672.0;;;15.05;52.32
32452;BME280;45528;52.102;5.242;2023-04-28T06:09:29;100671.0;;;14.99;52.18
32452;BME280;45528;52.102;5.242;2023-04-28T06:11:05;100662.0;;;15.2;52.71
32452;BME280;45528;52.102;5.242;2023-04-28T06:12:41;100653.0;;;15.08;52.35
32452;BME280;45528;52.102;5.242;2023-04-28T06:14:17;100645.0;;;15.05;52.35
32452;BME280;45528;52.102;5.242;2023-04-28T06:17:29;100644.0;;;14.95;52.88
32452;BME280;45528;52.102;5.242;2023-04-28T06:19:05;100648.0;;;15.04;53.14
32452;BME280;45528;52.102;5.242;2023-04-28T06:20:42;100651.0;;;15.13;52.96
32452;BME280;45528;52.102;5.242;2023-04-28T06:23:54;100648.0;;;15.21;53.13
32452;BME280;45528;52.102;5.242;2023-04-28T06:25:30;100643.0;;;15.29;53.78
32452;BME280;45528;52.102;5.242;2023-04-28T06:27:06;100641.0;;;15.27;53.83
32452;BME280;45528;52.102;5.242;2023-04-28T06:30:20;100636.0;;;15.35;54.34
32452;BME280;45528;52.102;5.242;2023-04-28T06:31:57;100633.0;;;15.35;55.23
32452;BME280;45528;52.102;5.242;2023-04-28T06:33:34;100637.0;;;15.38;56.1
32452;BME280;45528;52.102;5.242;2023-04-28T06:36:46;100633.0;;;15.42;55.9
32452;BME280;45528;52.102;5.242;2023-04-28T06:38:22;100636.0;;;15.46;56.53
32452;BME280;45528;52.102;5.242;2023-04-28T06:39:58;100640.0;;;15.53;56.32
32452;BME280;45528;52.102;5.242;2023-04-28T06:41:34;100644.0;;;15.55;56.95
32452;BME280;45528;52.102;5.242;2023-04-28T06:44:46;100649.0;;;15.6;56.92
32452;BME280;45528;52.102;5.242;2023-04-28T06:46:23;100646.0;;;15.57;56.9
32452;BME280;45528;52.102;5.242;2023-04-28T06:47:59;100645.0;;;15.74;56.8
32452;BME280;45528;52.102;5.242;2023-04-28T06:51:10;100642.0;;;15.74;57.39
32452;BME280;45528;52.102;5.242;2023-04-28T06:52:46;100635.0;;;15.68;57.64
32452;BME280;45528;52.102;5.242;2023-04-28T06:54:22;100628.0;;;15.84;57.35
32452;BME280;45528;52.102;5.242;2023-04-28T06:57:35;100621.0;;;15.97;57.32
32452;BME280;45528;52.102;5.242;2023-04-28T06:59:12;100626.0;;;16.0;57.06
32452;BME280;45528;52.102;5.242;2023-04-28T07:00:48;100634.0;;;16.06;57.24
32452;BME280;45528;52.102;5.242;2023-04-28T07:02:24;100623.0;;;16.09;57.45
32452;BME280;45528;52.102;5.242;2023-04-28T07:05:36;100630.0;;;16.32;57.28
32452;BME280;45528;52.102;5.242;2023-04-28T07:07:12;100630.0;;;16.36;57.23
32452;BME280;45528;52.102;5.242;2023-04-28T07:08:48;100630.0;;;16.52;56.86
32452;BME280;45528;52.102;5.242;2023-04-28T07:12:01;100635.0;;;16.7;56.22
32452;BME280;45528;52.102;5.242;2023-04-28T07:13:38;100637.0;;;16.78;56.32
32452;BME280;45528;52.102;5.242;2023-04-28T07:15:14;100638.0;;;16.75;56.21
32452;BME280;45528;52.102;5.242;2023-04-28T07:18:26;100644.0;;;16.84;56.15
32452;BME280;45528;52.102;5.242;2023-04-28T07:20:03;100635.0;;;16.9;55.82
32452;BME280;45528;52.102;5.242;2023-04-28T07:21:39;100635.0;;;17.02;55.95
32452;BME280;45528;52.102;5.242;2023-04-28T07:24:52;100637.0;;;17.02;55.81
32452;BME280;45528;52.102;5.242;2023-04-28T07:26:29;100639.0;;;17.18;55.7
32452;BME280;45528;52.102;5.242;2023-04-28T07:28:05;100636.0;;;17.03;56.18
32452;BME280;45528;52.102;5.242;2023-04-28T07:29:42;100632.0;;;17.2;55.82
32452;BME280;45528;52.102;5.242;2023-04-28T07:34:30;100628.0;;;17.32;56.38
32452;BME280;45528;52.102;5.242;2023-04-28T07:36:07;100631.0;;;17.38;55.54
32452;BME280;45528;52.102;5.242;2023-04-28T07:39:19;100635.0;;;17.54;55.93
32452;BME280;45528;52.102;5.242;2023-04-28T07:40:55;100633.0;;;17.41;55.5
32452;BME280;45528;52.102;5.242;2023-04-28T07:42:31;100634.0;;;17.34;56.08
32452;BME280;45528;52.102;5.242;2023-04-28T07:45:43;100630.0;;;17.27;56.43
32452;BME280;45528;52.102;5.242;2023-04-28T07:47:19;100623.0;;;17.43;56.24
32452;BME280;45528;52.102;5.242;2023-04-28T07:48:55;100616.0;;;17.59;55.86
32452;BME280;45528;52.102;5.242;2023-04-28T07:50:32;100619.0;;;17.7;55.61
32452;BME280;45528;52.102;5.242;2023-04-28T07:53:45;100625.0;;;17.77;55.75
32452;BME280;45528;52.102;5.242;2023-04-28T07:55:21;100621.0;;;17.73;55.66
32452;BME280;45528;52.102;5.242;2023-04-28T07:56:57;100619.0;;;17.7;55.97
32452;BME280;45528;52.102;5.242;2023-04-28T08:00:10;100620.0;;;17.68;55.87
32452;BME280;45528;52.102;5.242;2023-04-28T08:01:46;100622.0;;;17.71;56.04
32452;BME280;45528;52.102;5.242;2023-04-28T08:03:23;100622.0;;;17.63;56.48
32452;BME280;45528;52.102;5.242;2023-04-28T08:06:35;100619.0;;;17.68;56.59
32452;BME280;45528;52.102;5.242;2023-04-28T08:08:11;100622.0;;;17.7;56.57
32452;BME280;45528;52.102;5.242;2023-04-28T08:09:47;100627.0;;;17.72;56.54
32452;BME280;45528;52.102;5.242;2023-04-28T08:13:00;100624.0;;;17.68;57.19
32452;BME280;45528;52.102;5.242;2023-04-28T08:14:37;100624.0;;;17.82;57.28
32452;BME280;45528;52.102;5.242;2023-04-28T08:16:13;100628.0;;;17.8;57.76
32452;BME280;45528;52.102;5.242;2023-04-28T08:17:49;100630.0;;;17.77;58.02
32452;BME280;45528;52.102;5.242;2023-04-28T08:21:02;100633.0;;;17.77;58.1
32452;BME280;45528;52.102;5.242;2023-04-28T08:22:38;100630.0;;;17.59;58.79
32452;BME280;45528;52.102;5.242;2023-04-28T08:24:14;100622.0;;;17.61;59.9
32452;BME280;45528;52.102;5.242;2023-04-28T08:27:27;100622.0;;;17.71;60.52
32452;BME280;45528;52.102;5.242;2023-04-28T08:29:03;100620.0;;;17.7;61.07
32452;BME280;45528;52.102;5.242;2023-04-28T08:30:39;100616.0;;;17.77;61.53
32452;BME280;45528;52.102;5.242;2023-04-28T08:33:51;100615.0;;;17.91;62.2
32452;BME280;45528;52.102;5.242;2023-04-28T08:35:28;100617.0;;;18.02;62.48
32452;BME280;45528;52.102;5.242;2023-04-28T08:37:05;100617.0;;;18.11;61.7
32452;BME280;45528;52.102;5.242;2023-04-28T08:38:41;100614.0;;;18.11;62.37
32452;BME280;45528;52.102;5.242;2023-04-28T08:41:55;100614.0;;;18.23;61.63
32452;BME280;45528;52.102;5.242;2023-04-28T08:43:31;100616.0;;;18.29;62.05
32452;BME280;45528;52.102;5.242;2023-04-28T08:45:12;100621.0;;;18.3;61.8
32452;BME280;45528;52.102;5.242;2023-04-28T08:48:30;100621.0;;;18.45;61.5
32452;BME280;45528;52.102;5.242;2023-04-28T08:50:14;100619.0;;;18.36;61.56
32452;BME280;45528;52.102;5.242;2023-04-28T08:51:55;100623.0;;;18.48;61.27
32452;BME280;45528;52.102;5.242;2023-04-28T08:53:37;100618.0;;;18.2;61.86
32452;BME280;45528;52.102;5.242;2023-04-28T08:56:51;100626.0;;;18.16;62.25
32452;BME280;45528;52.102;5.242;2023-04-28T08:58:27;100623.0;;;18.02;62.57
32452;BME280;45528;52.102;5.242;2023-04-28T09:00:04;100621.0;;;18.05;62.5
32452;BME280;45528;52.102;5.242;2023-04-28T09:01:40;100618.0;;;18.05;62.91
32452;BME280;45528;52.102;5.242;2023-04-28T09:04:52;100613.0;;;18.06;62.7
32452;BME280;45528;52.102;5.242;2023-04-28T09:06:31;100616.0;;;18.14;62.56
32452;BME280;45528;52.102;5.242;2023-04-28T09:08:08;100614.0;;;18.2;62.99
32452;BME280;45528;52.102;5.242;2023-04-28T09:11:20;100613.0;;;18.25;63.05
32452;BME280;45528;52.102;5.242;2023-04-28T09:12:56;100606.0;;;18.11;62.88
32452;BME280;45528;52.102;5.242;2023-04-28T09:14:33;100614.0;;;18.21;63.01
32452;BME280;45528;52.102;5.242;2023-04-28T09:17:48;100609.0;;;18.25;62.88
32452;BME280;45528;52.102;5.242;2023-04-28T09:19:31;100611.0;;;18.07;63.58
32452;BME280;45528;52.102;5.242;2023-04-28T09:21:08;100608.0;;;18.11;63.54
32452;BME280;45528;52.102;5.242;2023-04-28T09:22:45;100608.0;;;18.2;63.53
32452;BME280;45528;52.102;5.242;2023-04-28T09:26:06;100605.0;;;18.28;63.37
32452;BME280;45528;52.102;5.242;2023-04-28T09:27:43;100607.0;;;18.27;63.72
32452;BME280;45528;52.102;5.242;2023-04-28T09:29:19;100609.0;;;18.36;63.82
32452;BME280;45528;52.102;5.242;2023-04-28T09:30:55;100609.0;;;18.47;64.08
32452;BME280;45528;52.102;5.242;2023-04-28T09:34:07;100609.0;;;18.54;63.87
32452;BME280;45528;52.102;5.242;2023-04-28T09:35:44;100612.0;;;18.53;64.2
32452;BME280;45528;52.102;5.242;2023-04-28T09:37:21;100605.0;;;18.63;63.92
32452;BME280;45528;52.102;5.242;2023-04-28T09:40:48;100609.0;;;18.52;64.45
32452;BME280;45528;52.102;5.242;2023-04-28T09:42:31;100608.0;;;18.47;64.56
32452;BME280;45528;52.102;5.242;2023-04-28T09:44:09;100605.0;;;18.46;64.83
32452;BME280;45528;52.102;5.242;2023-04-28T09:45:46;100601.0;;;18.45;65.17
32452;BME280;45528;52.102;5.242;2023-04-28T09:49:00;100605.0;;;18.61;65.22
32452;BME280;45528;52.102;5.242;2023-04-28T09:50:39;100596.0;;;18.56;65.31
32452;BME280;45528;52.102;5.242;2023-04-28T09:52:15;100597.0;;;18.72;64.99
32452;BME280;45528;52.102;5.242;2023-04-28T09:55:29;100598.0;;;18.77;64.89
32452;BME280;45528;52.102;5.242;2023-04-28T09:57:08;100599.0;;;18.68;65.1
32452;BME280;45528;52.102;5.242;2023-04-28T09:58:46;100599.0;;;18.72;65.47
32452;BME280;45528;52.102;5.242;2023-04-28T10:00:26;100598.0;;;18.82;65.34
32452;BME280;45528;52.102;5.242;2023-04-28T10:03:40;100597.0;;;18.72;65.39
32452;BME280;45528;52.102;5.242;2023-04-28T10:05:17;100593.0;;;18.82;65.36
32452;BME280;45528;52.102;5.242;2023-04-28T10:06:55;100592.0;;;18.86;65.03
32452;BME280;45528;52.102;5.242;2023-04-28T10:10:10;100593.0;;;18.61;65.64
32452;BME280;45528;52.102;5.242;2023-04-28T10:11:46;100591.0;;;18.84;65.25
32452;BME280;45528;52.102;5.242;2023-04-28T10:13:23;100597.0;;;18.89;65.11
32452;BME280;45528;52.102;5.242;2023-04-28T10:15:00;100596.0;;;18.95;64.58
32452;BME280;45528;52.102;5.242;2023-04-28T10:18:14;100595.0;;;18.89;64.55
32452;BME280;45528;52.102;5.242;2023-04-28T10:19:52;100600.0;;;18.66;65.14
32452;BME280;45528;52.102;5.242;2023-04-28T10:21:31;100601.0;;;18.88;64.63
32452;BME280;45528;52.102;5.242;2023-04-28T10:26:02;100597.0;;;18.86;64.67
32452;BME280;45528;52.102;5.242;2023-04-28T10:27:46;100601.0;;;18.84;64.56
32452;BME280;45528;52.102;5.242;2023-04-28T10:31:09;100594.0;;;19.02;63.91
32452;BME280;45528;52.102;5.242;2023-04-28T10:32:46;100598.0;;;18.95;64.24
32452;BME280;45528;52.102;5.242;2023-04-28T10:34:23;100599.0;;;18.61;65.47
32452;BME280;45528;52.102;5.242;2023-04-28T10:35:59;100595.0;;;19.03;64.94
32452;BME280;45528;52.102;5.242;2023-04-28T10:40:50;100596.0;;;18.96;65.0
32452;BME280;45528;52.102;5.242;2023-04-28T10:42:58;100600.0;;;19.02;64.99
32452;BME280;45528;52.102;5.242;2023-04-28T10:44:41;100602.0;;;19.11;65.09
32452;BME280;45528;52.102;5.242;2023-04-28T10:46:17;100596.0;;;19.06;65.47
32452;BME280;45528;52.102;5.242;2023-04-28T10:50:10;100598.0;;;19.21;64.89
32452;BME280;45528;52.102;5.242;2023-04-28T10:51:46;100599.0;;;19.11;65.74
32452;BME280;45528;52.102;5.242;2023-04-28T10:54:06;100603.0;;;19.21;65.3
32452;BME280;45528;52.102;5.242;2023-04-28T10:55:42;100600.0;;;19.27;65.22
32452;BME280;45528;52.102;5.242;2023-04-28T10:57:20;100600.0;;;19.31;65.13
32452;BME280;45528;52.102;5.242;2023-04-28T10:58:56;100601.0;;;19.27;65.88
32452;BME280;45528;52.102;5.242;2023-04-28T11:02:41;100600.0;;;19.34;65.6
32452;BME280;45528;52.102;5.242;2023-04-28T11:04:17;100596.0;;;19.48;65.49
32452;BME280;45528;52.102;5.242;2023-04-28T11:06:17;100601.0;;;19.43;65.41
32452;BME280;45528;52.102;5.242;2023-04-28T11:08:33;100601.0;;;19.39;66.02
32452;BME280;45528;52.102;5.242;2023-04-28T11:10:09;100597.0;;;19.47;65.61
32452;BME280;45528;52.102;5.242;2023-04-28T11:12:03;100602.0;;;19.57;65.77
32452;BME280;45528;52.102;5.242;2023-04-28T11:13:40;100597.0;;;19.34;66.64